McCall, Idaho
Current Conditions -  °F | °C
As of 11:11 PM on Saturday 20 Dec 2014 (Local Time) from KMYL Reporting Station
Light Snow Light Snow  
Wind Chill: 26°   Ceiling: 1300
Heat Index: 32°   Visibility: 1.5mi
Dew Point: 32°   Wind: 6mph
Humidity: 100%   Direction: 180°S
Pressure: 29.79"   Gusts: NA
Location:  44.91°N, 116.1°W
Report Text: KMYL 210611Z AUTO 18005KT 1 1/2SM -SN BR FEW003 OVC013 00/00 A2979 RMK AO2 P0002 T00000000
Loading
Personal Weather Stations






























Interactive Weather Map New forecast layout! Learn more

10-Day Weather Forecast

Advertisements
Track Severe Weather on mobile